| time (UTC) | temp F | wind direction | speed knots | gust knots | rain 1hr in | rain 24hr in | rain mn in | humidity % | barometer mb |
| 20260902060002 | 58 | 255 | 4.3 | 7.0 | 0.00 | 0.00 | 0.00 | 89 | 1017.4 |
| 20260902054958 | 58 | 223 | 4.3 | 7.8 | 0.00 | 0.00 | 0.00 | 89 | 1017.3 |
| 20260902052856 | 57 | 224 | 4.3 | 7.0 | 0.00 | 0.00 | 0.00 | 89 | 1017.2 |
| 20260902051918 | 57 | 194 | 4.3 | 7.8 | 0.00 | 0.00 | 0.00 | 88 | 1017.3 |
| 20260902050844 | 57 | 228 | 3.5 | 7.8 | 0.00 | 0.00 | 0.00 | 88 | 1017.3 |
| 20260902045842 | 57 | 208 | 3.5 | 7.0 | 0.00 | 0.00 | 0.00 | 88 | 1017.4 |
| 20260902044857 | 57 | 222 | 4.3 | 7.0 | 0.00 | 0.00 | 0.00 | 88 | 1017.4 |
| 20260902042649 | 57 | 211 | 2.6 | 5.2 | 0.00 | 0.00 | 0.00 | 87 | 1017.4 |
| 20260902040549 | 56 | 218 | 3.5 | 7.0 | 0.00 | 0.00 | 0.00 | 87 | 1017.3 |
| 20260902035516 | 56 | 204 | 2.6 | 8.7 | 0.00 | 0.00 | 0.00 | 86 | 1017.4 |
| 20260902034451 | 56 | 191 | 4.3 | 8.7 | 0.00 | 0.00 | 0.00 | 86 | 1017.4 |
| 20260902033442 | 56 | 214 | 3.5 | 4.3 | 0.00 | 0.00 | 0.00 | 86 | 1017.7 |
| 20260902032421 | 56 | 205 | 3.5 | 4.3 | 0.00 | 0.00 | 0.00 | 85 | 1017.4 |
| 20260902031422 | 57 | 199 | 3.5 | 4.3 | 0.00 | 0.00 | 0.00 | 85 | 1017.6 |
| 20260902030435 | 57 | 195 | 3.5 | 4.3 | 0.00 | 0.00 | 0.00 | 85 | 1017.8 |
| 20260902025405 | 57 | 195 | 2.6 | 3.5 | 0.00 | 0.00 | 0.00 | 84 | 1017.9 |
| 20260902024340 | 57 | 204 | 3.5 | 3.5 | 0.00 | 0.00 | 0.00 | 84 | 1017.8 |
| 20260902023316 | 57 | 205 | 3.5 | 4.3 | 0.00 | 0.00 | 0.00 | 84 | 1017.9 |
| 20260902022328 | 57 | 206 | 3.5 | 5.2 | 0.00 | 0.00 | 0.00 | 84 | 1017.9 |
| 20260902021348 | 57 | 211 | 3.5 | 5.2 | 0.00 | 0.00 | 0.00 | 84 | 1017.9 |
| 20260902020347 | 57 | 231 | 3.5 | 5.2 | 0.00 | 0.00 | 0.00 | 84 | 1017.9 |
| 20260902014155 | 58 | 216 | 3.5 | 6.1 | 0.00 | 0.00 | 0.00 | 83 | 1017.8 |
| 20260902011939 | 58 | 213 | 3.5 | 5.2 | 0.00 | 0.00 | 0.00 | 82 | 1017.9 |
| 20260902010952 | 58 | 207 | 3.5 | 6.1 | 0.00 | 0.00 | 0.00 | 82 | 1018.0 |
| 20260902005948 | 58 | 207 | 3.5 | 6.1 | 0.00 | 0.00 | 0.00 | 82 | 1018.0 |
| 20260902004931 | 58 | 237 | 4.3 | 5.2 | 0.00 | 0.00 | 0.00 | 82 | 1018.2 |
| 20260902003928 | 59 | 246 | 3.5 | 7.0 | 0.00 | 0.00 | 0.00 | 81 | 1018.3 |
| 20260902002937 | 59 | 240 | 3.5 | 7.0 | 0.00 | 0.00 | 0.00 | 81 | 1018.4 |
| 20260902001925 | 59 | 206 | 3.5 | 6.1 | 0.00 | 0.00 | 0.00 | 81 | 1018.4 |
| 20260902000930 | 59 | 222 | 3.5 | 5.2 | 0.00 | 0.00 | 0.00 | 80 | 1018.3 |
| 20260901235926 | 59 | 207 | 3.5 | 5.2 | 0.00 | 0.00 | 0.00 | 80 | 1018.4 |
| 20260901234906 | 59 | 208 | 4.3 | 5.2 | 0.00 | 0.00 | 0.00 | 80 | 1018.3 |
| 20260901233834 | 60 | 231 | 3.5 | 7.0 | 0.00 | 0.00 | 0.00 | 80 | 1018.2 |
| 20260901232849 | 60 | 219 | 4.3 | 7.0 | 0.00 | 0.00 | 0.00 | 79 | 1018.3 |
| 20260901231851 | 60 | 224 | 4.3 | 6.1 | 0.00 | 0.00 | 0.00 | 79 | 1018.3 |
| 20260901230914 | 60 | 220 | 3.5 | 7.8 | 0.00 | 0.00 | 0.00 | 79 | 1018.4 |
| 20260901225903 | 60 | 209 | 5.2 | 7.8 | 0.00 | 0.00 | 0.00 | 78 | 1018.5 |
| 20260901224855 | 60 | 231 | 5.2 | 7.0 | 0.00 | 0.00 | 0.00 | 78 | 1018.5 |
| 20260901223913 | 60 | 231 | 5.2 | 9.6 | 0.00 | 0.00 | 0.00 | 79 | 1018.5 |
| 20260901222916 | 61 | 233 | 5.2 | 9.6 | 0.00 | 0.00 | 0.00 | 79 | 1018.5 |
| 20260901221939 | 61 | 226 | 5.2 | 7.0 | 0.00 | 0.00 | 0.00 | 79 | 1018.4 |
| 20260901220954 | 61 | 243 | 4.3 | 7.0 | 0.00 | 0.00 | 0.00 | 79 | 1018.5 |
| 20260901220005 | 61 | 223 | 3.5 | 7.0 | 0.00 | 0.00 | 0.00 | 78 | 1018.4 |
| 20260901214959 | 61 | 235 | 5.2 | 7.0 | 0.00 | 0.00 | 0.00 | 78 | 1018.6 |
| 20260901214020 | 61 | 237 | 5.2 | 7.0 | 0.00 | 0.00 | 0.00 | 78 | 1018.6 |
| 20260901211827 | 62 | 234 | 5.2 | 7.8 | 0.00 | 0.00 | 0.00 | 77 | 1018.7 |
| 20260901210850 | 62 | 236 | 5.2 | 7.8 | 0.00 | 0.00 | 0.00 | 77 | 1018.5 |
| 20260901205830 | 62 | 241 | 5.2 | 8.7 | 0.00 | 0.00 | 0.00 | 76 | 1018.7 |
| 20260901204835 | 62 | 239 | 6.1 | 8.7 | 0.00 | 0.00 | 0.00 | 76 | 1018.6 |
| 20260901203835 | 62 | 238 | 5.2 | 7.0 | 0.00 | 0.00 | 0.00 | 76 | 1018.6 |
| 20260901202834 | 62 | 234 | 6.1 | 8.7 | 0.00 | 0.00 | 0.00 | 75 | 1018.6 |
| 20260901201815 | 62 | 251 | 6.1 | 8.7 | 0.00 | 0.00 | 0.00 | 75 | 1018.5 |
| 20260901200836 | 62 | 234 | 5.2 | 8.7 | 0.00 | 0.00 | 0.00 | 75 | 1018.5 |
| 20260901195821 | 62 | 234 | 5.2 | 7.8 | 0.00 | 0.00 | 0.00 | 75 | 1018.6 |
| 20260901193753 | 62 | 257 | 7.0 | 10.4 | 0.00 | 0.00 | 0.00 | 75 | 1018.6 |
| 20260901192731 | 62 | 254 | 6.1 | 11.3 | 0.00 | 0.00 | 0.00 | 75 | 1018.6 |
| 20260901190537 | 63 | 267 | 10.4 | 17.4 | 0.00 | 0.00 | 0.00 | 75 | 1018.8 |
| 20260901185519 | 64 | 259 | 10.4 | 17.4 | 0.00 | 0.00 | 0.00 | 73 | 1018.5 |
| 20260901183316 | 65 | 237 | 7.8 | 13.9 | 0.00 | 0.00 | 0.00 | 68 | 1018.1 |
| 20260901182257 | 66 | 250 | 5.2 | 7.8 | 0.00 | 0.00 | 0.00 | 67 | 1017.9 |
| 20260901181314 | 66 | 234 | 6.1 | 8.7 | 0.00 | 0.00 | 0.00 | 67 | 1018.0 |
| 20260901180241 | 66 | 250 | 6.1 | 8.7 | 0.00 | 0.00 | 0.00 | 67 | 1018.1 |
| 20260901175237 | 66 | 227 | 7.0 | 9.6 | 0.00 | 0.00 | 0.00 | 66 | 1018.1 |
| 20260901174231 | 66 | 248 | 7.0 | 10.4 | 0.00 | 0.00 | 0.00 | 66 | 1018.1 |
| 20260901172116 | 67 | 256 | 7.0 | 11.3 | 0.00 | 0.00 | 0.00 | 65 | 1018.2 |
| 20260901171127 | 67 | 262 | 7.8 | 13.9 | 0.00 | 0.00 | 0.00 | 64 | 1018.0 |
| 20260901170135 | 68 | 265 | 7.8 | 15.6 | 0.00 | 0.00 | 0.00 | 62 | 1018.0 |
| 20260901164008 | 67 | 251 | 8.7 | 15.6 | 0.00 | 0.00 | 0.00 | 63 | 1018.3 |
| 20260901160635 | 69 | 263 | 9.6 | 18.2 | 0.00 | 0.00 | 0.00 | 59 | 1018.0 |
| 20260901155608 | 69 | 263 | 10.4 | 19.1 | 0.00 | 0.00 | 0.00 | 59 | 1018.2 |
| 20260901154611 | 68 | 261 | 7.8 | 13.9 | 0.00 | 0.00 | 0.00 | 62 | 1018.2 |
| 20260901153604 | 68 | 246 | 7.0 | 14.8 | 0.00 | 0.00 | 0.00 | 62 | 1018.0 |
| 20260901152532 | 68 | 250 | 8.7 | 14.8 | 0.00 | 0.00 | 0.00 | 60 | 1018.1 |
| 20260901150347 | 69 | 244 | 8.7 | 16.5 | 0.00 | 0.00 | 0.00 | 59 | 1018.1 |
| 20260901145353 | 69 | 261 | 9.6 | 16.5 | 0.00 | 0.00 | 0.00 | 58 | 1018.3 |
| 20260901144319 | 70 | 256 | 8.7 | 13.9 | 0.00 | 0.00 | 0.00 | 57 | 1018.2 |
| 20260901143328 | 70 | 260 | 9.6 | 13.9 | 0.00 | 0.00 | 0.00 | 59 | 1018.2 |
| 20260901142328 | 69 | 248 | 8.7 | 13.9 | 0.00 | 0.00 | 0.00 | 60 | 1018.4 |
| 20260901140154 | 70 | 268 | 9.6 | 15.6 | 0.00 | 0.00 | 0.00 | 58 | 1018.3 |
| 20260901135149 | 70 | 262 | 9.6 | 15.6 | 0.00 | 0.00 | 0.00 | 56 | 1018.4 |
| 20260901134147 | 70 | 263 | 9.6 | 15.6 | 0.00 | 0.00 | 0.00 | 57 | 1018.3 |
| 20260901133156 | 71 | 257 | 8.7 | 18.2 | 0.00 | 0.00 | 0.00 | 58 | 1018.3 |
| 20260901132207 | 71 | 261 | 9.6 | 18.2 | 0.00 | 0.00 | 0.00 | 54 | 1018.3 |
| 20260901131225 | 71 | 240 | 8.7 | 13.0 | 0.00 | 0.00 | 0.00 | 54 | 1018.4 |
| 20260901130239 | 71 | 247 | 7.8 | 18.2 | 0.00 | 0.00 | 0.00 | 54 | 1018.5 |
| 20260901125226 | 71 | 250 | 10.4 | 18.2 | 0.00 | 0.00 | 0.00 | 55 | 1018.3 |
| 20260901123103 | 70 | 268 | 7.8 | 13.0 | 0.00 | 0.00 | 0.00 | 54 | 1018.6 |
| 20260901122042 | 70 | 268 | 7.8 | 13.0 | 0.00 | 0.00 | 0.00 | 56 | 1018.6 |
| 20260901121052 | 69 | 239 | 8.7 | 14.8 | 0.00 | 0.00 | 0.00 | 56 | 1018.7 |
| 20260901114947 | 68 | 241 | 8.7 | 13.9 | 0.00 | 0.00 | 0.00 | 56 | 1018.7 |
| 20260901114011 | 68 | 255 | 7.8 | 13.9 | 0.00 | 0.03 | 0.00 | 57 | 1018.5 |
| 20260901112939 | 67 | 257 | 7.8 | 11.3 | 0.00 | 0.03 | 0.00 | 58 | 1018.5 |
| 20260901111959 | 67 | 236 | 7.0 | 13.0 | 0.00 | 0.03 | 0.00 | 61 | 1018.5 |
| 20260901110942 | 67 | 239 | 7.8 | 13.0 | 0.00 | 0.03 | 0.00 | 60 | 1018.7 |
| 20260901105956 | 66 | 240 | 7.8 | 15.6 | 0.00 | 0.03 | 0.00 | 64 | 1018.8 |
| 20260901105018 | 66 | 259 | 9.6 | 15.6 | 0.00 | 0.03 | 0.00 | 63 | 1019.0 |
| 20260901104035 | 65 | 254 | 7.8 | 12.2 | 0.00 | 0.03 | 0.00 | 65 | 1018.9 |
| 20260901103049 | 65 | 246 | 7.0 | 12.2 | 0.00 | 0.03 | 0.00 | 66 | 1019.1 |
| 20260901100952 | 64 | 258 | 7.8 | 11.3 | 0.00 | 0.03 | 0.00 | 69 | 1018.9 |
| 20260901100016 | 64 | 266 | 7.8 | 12.2 | 0.00 | 0.03 | 0.00 | 72 | 1019.0 |
| 20260901095009 | 63 | 269 | 7.8 | 13.9 | 0.00 | 0.03 | 0.00 | 74 | 1019.2 |
| 20260901094027 | 63 | 264 | 7.8 | 13.9 | 0.00 | 0.03 | 0.00 | 75 | 1019.1 |
| 20260901093007 | 62 | 253 | 7.0 | 11.3 | 0.00 | 0.03 | 0.00 | 79 | 1019.3 |
| 20260901091956 | 61 | 241 | 7.0 | 11.3 | 0.00 | 0.03 | 0.00 | 80 | 1019.4 |
| 20260901090931 | 60 | 224 | 5.2 | 8.7 | 0.00 | 0.03 | 0.00 | 82 | 1019.3 |
| 20260901083719 | 58 | 249 | 7.0 | 10.4 | 0.00 | 0.03 | 0.00 | 87 | 1019.4 |
| 20260901082727 | 57 | 238 | 6.1 | 10.4 | 0.00 | 0.03 | 0.00 | 88 | 1019.3 |
| 20260901081742 | 57 | 251 | 5.2 | 12.2 | 0.00 | 0.03 | 0.00 | 88 | 1019.5 |
| 20260901080725 | 56 | 246 | 7.0 | 12.2 | 0.00 | 0.03 | 0.00 | 89 | 1019.4 |
| 20260901075748 | 56 | 221 | 5.2 | 9.6 | 0.00 | 0.03 | 0.00 | 89 | 1019.2 |
| 20260901074717 | 55 | 217 | 6.1 | 9.6 | 0.00 | 0.03 | 0.00 | 90 | 1019.3 |
| 20260901071508 | 53 | 223 | 5.2 | 7.8 | 0.00 | 0.03 | 0.00 | 92 | 1019.0 |
| 20260901065312 | 52 | 219 | 7.0 | 9.6 | 0.00 | 0.03 | 0.00 | 92 | 1019.0 |
| 20260901064311 | 52 | 214 | 6.1 | 7.8 | 0.00 | 0.03 | 0.00 | 92 | 1019.0 |
| 20260901063244 | 52 | 211 | 3.5 | 6.1 | 0.00 | 0.03 | 0.00 | 91 | 1019.0 |
| 20260901061035 | 52 | 233 | 4.3 | 7.0 | 0.00 | 0.03 | 0.00 | 91 | 1018.9 |